LEZL Airport Information

Runway Information
Runway 09 Length 11030 ft width 148 ft
Elevation 83 ft Threshold ft Heading 90
Runway 27 Length 11030 ft Width 148 ft
Elevation 111 ft Threshold ft Heading 270
Airport Frequencies
Type APP Name APP Frequency 120 MHZ
Type ATIS Name ATIS Frequency 118.175 MHZ
Type GND Name GND Frequency 121.7 MHZ
Type TWR Name TWR Frequency 118.1 MHZ
Airport Navaids
Type NDB Name Sevilla Frequency 420 KHZ
Type VOR-DME Name Sevilla Frequency 113700 KHZ
Airport Weather Information & NOTAM
ADDS - METARS form results

(0644 UTC 03 December 2022)
Data provider http://aviationweather.gov/metar/data/
 
METAR text: LEZL 030630Z 34004KT 320V020 CAVOK 05/04 Q1008 NOSIG
Conditions at: LEZL (SEVILLA (CIV/MIL, ES) observed 0630 UTC 03 December 2022
Temperature: 5.0°C (41°F)
Dewpoint: 4.0°C (39°F) [RH = 93%]
Pressure (altimeter): 29.76 inches Hg (1008.0 mb)
Winds: from the NNW (340 degrees) at 5 MPH (4 knots; 2.1 m/s)
Visibility: 6 or more miles (10+ km)
Ceiling: ceiling and visibility are OK
Clouds: unknown
Weather: no significant weather observed at this time

METAR text: LEZL 030600Z VRB01KT CAVOK 06/05 Q1008 NOSIG
Conditions at: LEZL (SEVILLA (CIV/MIL, ES) observed 0600 UTC 03 December 2022
Temperature: 6.0°C (43°F)
Dewpoint: 5.0°C (41°F) [RH = 93%]
Pressure (altimeter): 29.76 inches Hg (1008.0 mb)
Winds: variable direction winds at 1 MPH (1 knots; 0.5 m/s)
Visibility: 6 or more miles (10+ km)
Ceiling: ceiling and visibility are OK
Clouds: unknown
Weather: no significant weather observed at this time

Forecast for: LEZL (SEVILLA (CIV/MIL, ES)
Text: TAF LEZL 030200Z 0303/0403 05005KT 9999 FEW035 TX18/0315Z TN05/0307Z
Forecast period: 0300 UTC 03 December 2022 to 0300 UTC 04 December 2022
Forecast type: FROM: standard forecast or significant change
Winds: from the NE (50 degrees) at 6 MPH (5 knots; 2.6 m/s)
Visibility: 6 or more miles (10+ km)
Ceiling: at least 12,000 feet AGL
Clouds: few clouds at 3500 feet AGL
Weather: no significant weather forecast for this period
Text: PROB40
Forecast period: 1600 UTC 03 December 2022 to 0000 UTC 04 December 2022
Forecast type: TEMPORARY: The following changes expected for less than half the time period
Visibility: 2.49 miles (4.01 km)
Ceiling: 1400 feet AGL
Clouds: broken clouds at 1400 feet AGL
Weather: RA  (moderate rain)